createdAt,value
2023-04-29T00:01:42.845Z,55.93
2023-04-29T00:04:11.080Z,56.02
2023-04-29T00:06:39.099Z,55.93
2023-04-29T00:09:07.092Z,56.28
2023-04-29T00:11:35.145Z,56.64
2023-04-29T00:14:03.355Z,56.35
2023-04-29T00:16:31.370Z,56.14
2023-04-29T00:18:59.761Z,56.11
2023-04-29T00:21:28.156Z,56.28
2023-04-29T00:23:56.448Z,56.42
2023-04-29T00:26:24.373Z,56.24
2023-04-29T00:28:52.756Z,56.49
2023-04-29T00:31:22.031Z,56.75
2023-04-29T00:33:50.225Z,56.92
2023-04-29T00:36:18.203Z,56.88
2023-04-29T00:38:46.289Z,56.97
2023-04-29T00:41:14.390Z,56.90
2023-04-29T00:43:43.296Z,56.93
2023-04-29T00:46:11.923Z,57.46
2023-04-29T00:48:39.933Z,57.09
2023-04-29T00:51:07.960Z,57.48
2023-04-29T00:53:36.523Z,57.50
2023-04-29T00:56:04.818Z,57.63
2023-04-29T00:58:35.513Z,57.51
2023-04-29T01:01:06.651Z,57.51
2023-04-29T01:03:35.464Z,57.42
2023-04-29T01:06:08.445Z,57.92
2023-04-29T01:08:44.458Z,58.51
2023-04-29T01:11:12.495Z,58.90
2023-04-29T01:13:51.456Z,58.32
2023-04-29T01:16:26.721Z,58.16
2023-04-29T01:18:58.392Z,58.58
2023-04-29T01:21:32.184Z,58.68
2023-04-29T01:24:00.305Z,58.73
2023-04-29T01:26:31.787Z,58.63
2023-04-29T01:29:27.419Z,58.91
2023-04-29T01:32:09.197Z,59.52
2023-04-29T01:34:59.952Z,59.45
2023-04-29T01:37:40.312Z,59.10
2023-04-29T01:40:25.385Z,59.44
2023-04-29T01:43:12.791Z,59.19
2023-04-29T01:45:45.096Z,59.55
2023-04-29T01:48:14.097Z,60.12
2023-04-29T01:50:42.284Z,60.07
2023-04-29T01:53:14.463Z,60.48
2023-04-29T01:55:46.386Z,60.57
2023-04-29T01:58:18.274Z,61.49
2023-04-29T02:00:55.969Z,62.21
2023-04-29T02:03:24.588Z,63.11
2023-04-29T02:05:58.061Z,62.05
2023-04-29T02:08:26.636Z,61.80
2023-04-29T02:10:57.818Z,62.65
2023-04-29T02:13:42.273Z,62.07
2023-04-29T02:16:11.614Z,63.16
2023-04-29T02:18:43.520Z,62.77
2023-04-29T02:21:12.359Z,64.94
2023-04-29T02:23:43.548Z,65.31
2023-04-29T02:26:12.110Z,64.38
2023-04-29T02:28:40.233Z,65.09
2023-04-29T02:31:08.226Z,64.84
2023-04-29T02:33:36.272Z,66.64
2023-04-29T02:36:04.762Z,67.18
2023-04-29T02:38:32.879Z,65.78
2023-04-29T02:41:00.895Z,66.75
2023-04-29T02:43:31.200Z,66.75
2023-04-29T02:46:00.594Z,67.25
2023-04-29T02:48:28.875Z,65.97
2023-04-29T02:50:56.903Z,66.07
2023-04-29T02:53:25.313Z,67.20
2023-04-29T02:55:53.495Z,66.84
2023-04-29T02:58:21.730Z,66.79
2023-04-29T03:00:50.197Z,67.04
2023-04-29T03:03:18.998Z,66.73
2023-04-29T03:05:50.309Z,66.54
2023-04-29T03:08:18.905Z,66.76
2023-04-29T03:10:47.794Z,67.22
2023-04-29T03:13:16.137Z,67.13
2023-04-29T03:15:45.810Z,66.67
2023-04-29T03:18:14.168Z,66.27
2023-04-29T03:20:42.160Z,66.43
2023-04-29T03:23:10.615Z,66.55
2023-04-29T03:25:39.687Z,66.63
2023-04-29T03:28:08.820Z,66.54
2023-04-29T03:30:38.566Z,67.02
2023-04-29T03:33:08.964Z,67.21
2023-04-29T03:35:37.199Z,67.73
2023-04-29T03:38:25.989Z,69.44
2023-04-29T03:40:54.575Z,68.24
2023-04-29T03:43:23.030Z,68.22
2023-04-29T03:45:51.660Z,67.49
2023-04-29T03:48:21.669Z,66.55
2023-04-29T03:50:49.935Z,67.41
2023-04-29T03:53:18.646Z,65.89
2023-04-29T03:55:47.112Z,65.89
2023-04-29T03:58:15.991Z,65.47
2023-04-29T04:00:44.502Z,65.68
2023-04-29T04:03:15.116Z,66.54
2023-04-29T04:05:44.044Z,66.92
2023-04-29T04:08:14.950Z,66.90
2023-04-29T04:10:48.165Z,66.72
2023-04-29T04:13:25.564Z,66.44
2023-04-29T04:15:53.846Z,66.38
2023-04-29T04:18:21.971Z,66.13
2023-04-29T04:20:51.149Z,65.96
2023-04-29T04:23:19.275Z,65.68
2023-04-29T04:25:48.517Z,65.61
2023-04-29T04:28:37.851Z,65.87
2023-04-29T04:31:16.908Z,65.71
2023-04-29T04:33:46.083Z,65.60
2023-04-29T04:36:14.389Z,65.48
2023-04-29T04:38:45.014Z,65.39
2023-04-29T04:41:13.977Z,65.35
2023-04-29T04:43:45.230Z,65.01
2023-04-29T04:46:21.460Z,64.83
2023-04-29T04:49:05.921Z,64.62
2023-04-29T04:51:35.052Z,64.67
2023-04-29T04:54:03.425Z,64.63
2023-04-29T04:56:31.810Z,64.51
2023-04-29T04:59:00.348Z,64.29
2023-04-29T05:01:29.366Z,64.22
2023-04-29T05:03:58.848Z,64.00
2023-04-29T05:06:28.459Z,63.68
2023-04-29T05:08:59.013Z,63.17
2023-04-29T05:11:27.676Z,62.85
2023-04-29T05:14:16.974Z,62.62
2023-04-29T05:16:46.916Z,62.34
2023-04-29T05:19:16.955Z,61.90
2023-04-29T05:21:46.796Z,61.66
2023-04-29T05:24:18.684Z,61.27
2023-04-29T05:26:52.555Z,60.25
2023-04-29T05:29:22.986Z,59.99
2023-04-29T05:31:56.516Z,60.02
2023-04-29T05:34:26.165Z,59.26
2023-04-29T05:36:54.394Z,59.00
2023-04-29T05:39:23.125Z,58.75
2023-04-29T05:42:03.058Z,58.25
2023-04-29T05:44:44.513Z,58.45
2023-04-29T05:47:17.195Z,58.36
2023-04-29T05:49:46.428Z,58.64
2023-04-29T05:52:15.043Z,58.70
2023-04-29T05:54:46.769Z,59.09
2023-04-29T05:57:16.073Z,59.17
2023-04-29T05:59:48.388Z,59.40
2023-04-29T06:02:17.422Z,59.54
2023-04-29T06:04:48.144Z,59.12
2023-04-29T06:07:42.608Z,58.65
2023-04-29T06:10:32.775Z,58.45
2023-04-29T06:13:06.812Z,57.93
2023-04-29T06:15:39.749Z,57.67
2023-04-29T06:18:08.182Z,57.11
2023-04-29T06:20:37.671Z,56.50
2023-04-29T06:23:06.887Z,56.17
2023-04-29T06:25:35.700Z,55.47
2023-04-29T06:28:08.644Z,55.50
2023-04-29T06:30:38.109Z,55.50
2023-04-29T06:33:09.656Z,55.82
2023-04-29T06:35:42.292Z,55.10
2023-04-29T06:38:26.033Z,54.69
2023-04-29T06:41:22.229Z,54.95
2023-04-29T06:44:13.376Z,53.95
2023-04-29T06:46:54.282Z,53.61
2023-04-29T06:49:43.879Z,53.01
2023-04-29T06:52:12.822Z,52.63
2023-04-29T06:54:40.961Z,51.96
2023-04-29T06:57:11.470Z,51.89
2023-04-29T06:59:39.458Z,51.72
2023-04-29T07:02:07.531Z,50.84
2023-04-29T07:04:37.765Z,50.78
2023-04-29T07:07:07.003Z,51.18
2023-04-29T07:09:49.357Z,51.25
2023-04-29T07:12:17.964Z,50.46
2023-04-29T07:14:46.024Z,51.29
2023-04-29T07:17:14.382Z,50.82
2023-04-29T07:19:43.528Z,51.10
2023-04-29T07:22:12.519Z,51.15
2023-04-29T07:24:41.914Z,50.85
2023-04-29T07:27:10.346Z,50.86
2023-04-29T07:29:38.685Z,50.52
2023-04-29T07:32:06.988Z,50.18
2023-04-29T07:34:37.037Z,50.64
2023-04-29T07:37:05.610Z,50.91
2023-04-29T07:39:35.724Z,51.01
2023-04-29T07:42:04.756Z,50.80
2023-04-29T07:44:32.914Z,50.51
2023-04-29T07:47:00.968Z,50.24
2023-04-29T07:49:29.424Z,50.03
2023-04-29T07:51:57.720Z,50.05
2023-04-29T07:54:26.004Z,50.85
2023-04-29T07:56:54.424Z,50.62
2023-04-29T07:59:23.239Z,50.37
2023-04-29T08:01:52.472Z,50.09
2023-04-29T08:04:21.202Z,50.36
2023-04-29T08:07:00.355Z,50.81
2023-04-29T08:09:29.948Z,50.90
2023-04-29T08:12:11.005Z,51.34
2023-04-29T08:14:42.671Z,51.56
2023-04-29T08:17:11.356Z,51.93
2023-04-29T08:19:41.854Z,52.76
2023-04-29T08:22:11.308Z,53.61
2023-04-29T08:24:39.389Z,54.23
2023-04-29T08:27:07.723Z,54.54
2023-04-29T08:29:36.255Z,55.09
2023-04-29T08:32:05.047Z,56.04
2023-04-29T08:34:34.029Z,57.28
2023-04-29T08:37:03.248Z,57.60
2023-04-29T08:39:31.453Z,57.94
2023-04-29T08:42:00.251Z,58.33
2023-04-29T08:44:28.357Z,58.23
2023-04-29T08:46:56.809Z,59.75
2023-04-29T08:49:25.124Z,60.77
2023-04-29T08:51:54.226Z,61.10
2023-04-29T08:54:22.210Z,62.66
2023-04-29T08:56:50.381Z,63.74
2023-04-29T08:59:18.760Z,65.15
2023-04-29T09:01:50.828Z,65.95
2023-04-29T09:04:30.459Z,67.17
2023-04-29T09:07:03.456Z,68.32
2023-04-29T09:09:33.235Z,67.85
2023-04-29T09:12:02.161Z,69.42
2023-04-29T09:14:30.442Z,69.79
2023-04-29T09:17:00.169Z,71.41
2023-04-29T09:19:36.158Z,71.56
2023-04-29T09:22:07.451Z,72.39
2023-04-29T09:24:35.684Z,72.15
2023-04-29T09:27:04.575Z,72.67
2023-04-29T09:29:34.220Z,73.72
2023-04-29T09:32:16.889Z,73.26
2023-04-29T09:34:44.838Z,74.24
2023-04-29T09:37:39.325Z,74.35
2023-04-29T09:40:09.858Z,75.38
2023-04-29T09:42:49.930Z,76.10
2023-04-29T09:45:33.816Z,77.98
2023-04-29T09:48:05.347Z,78.64
2023-04-29T09:50:33.474Z,80.72
2023-04-29T09:53:01.515Z,81.67
2023-04-29T09:55:32.432Z,82.12
2023-04-29T09:58:01.115Z,81.45
2023-04-29T10:00:33.506Z,81.67
2023-04-29T10:03:02.026Z,81.07
2023-04-29T10:05:33.284Z,80.85
2023-04-29T10:08:01.263Z,79.33
2023-04-29T10:10:30.311Z,79.01
2023-04-29T10:12:59.297Z,78.13
2023-04-29T10:15:43.315Z,75.82
2023-04-29T10:18:22.229Z,75.75
2023-04-29T10:20:50.541Z,75.83
2023-04-29T10:23:18.500Z,75.49
2023-04-29T10:25:46.941Z,74.71
2023-04-29T10:28:16.989Z,72.07
2023-04-29T10:30:45.637Z,71.32
2023-04-29T10:33:14.663Z,70.54
2023-04-29T10:35:44.906Z,68.93
2023-04-29T10:38:20.902Z,69.30
2023-04-29T10:40:49.215Z,69.12
2023-04-29T10:43:17.440Z,67.55
2023-04-29T10:45:46.939Z,67.89
2023-04-29T10:48:15.307Z,67.42
2023-04-29T10:50:49.413Z,66.34
2023-04-29T10:53:19.639Z,64.23
2023-04-29T10:55:48.643Z,60.86
2023-04-29T10:58:37.733Z,61.17
2023-04-29T11:01:06.301Z,59.49
2023-04-29T11:03:47.678Z,59.61
2023-04-29T11:06:16.174Z,58.84
2023-04-29T11:08:45.168Z,58.27
2023-04-29T11:11:16.695Z,58.83
2023-04-29T11:13:46.504Z,58.39
2023-04-29T11:16:14.724Z,57.75
2023-04-29T11:19:05.799Z,57.74
2023-04-29T11:21:38.072Z,58.23
2023-04-29T11:24:06.604Z,58.17
2023-04-29T11:26:35.479Z,57.76
2023-04-29T11:29:05.157Z,56.27
2023-04-29T11:31:33.362Z,56.12
2023-04-29T11:34:01.682Z,55.63
2023-04-29T11:36:32.404Z,55.36
2023-04-29T11:39:01.866Z,54.40
2023-04-29T11:41:30.069Z,54.20
2023-04-29T11:43:59.411Z,53.65
2023-04-29T11:46:31.242Z,53.73
2023-04-29T11:49:02.275Z,53.27
2023-04-29T11:51:30.715Z,52.91
2023-04-29T11:53:58.785Z,51.70
2023-04-29T11:56:27.722Z,51.39
2023-04-29T11:59:01.391Z,49.24
2023-04-29T12:01:29.940Z,48.81
2023-04-29T12:04:18.869Z,49.07
2023-04-29T12:06:47.508Z,48.63
2023-04-29T12:09:16.203Z,48.42
2023-04-29T12:11:44.469Z,48.05
2023-04-29T12:14:13.898Z,47.10
2023-04-29T12:16:41.976Z,46.71
2023-04-29T12:19:10.826Z,46.94
2023-04-29T12:21:48.846Z,48.34
2023-04-29T12:24:17.856Z,48.83
2023-04-29T12:26:46.989Z,49.26
2023-04-29T12:29:15.771Z,49.51
2023-04-29T12:31:46.733Z,49.53
2023-04-29T12:34:15.192Z,49.42
2023-04-29T12:36:43.474Z,49.92
2023-04-29T12:39:11.683Z,49.87
2023-04-29T12:41:40.640Z,49.59
2023-04-29T12:44:10.903Z,49.36
2023-04-29T12:46:40.016Z,49.48
2023-04-29T12:49:08.171Z,49.79
2023-04-29T12:51:36.918Z,49.79
2023-04-29T12:54:07.330Z,49.76
2023-04-29T12:56:36.727Z,49.60
2023-04-29T12:59:09.307Z,49.56
2023-04-29T13:01:40.877Z,50.06
2023-04-29T13:04:11.041Z,50.17
2023-04-29T13:06:39.968Z,50.32
2023-04-29T13:09:17.479Z,49.18
2023-04-29T13:11:47.372Z,48.48
2023-04-29T13:14:16.573Z,48.31
2023-04-29T13:16:45.543Z,48.30
2023-04-29T13:19:30.553Z,47.28
2023-04-29T13:22:02.313Z,46.71
2023-04-29T13:24:31.025Z,46.94
2023-04-29T13:27:00.177Z,46.88
2023-04-29T13:29:28.416Z,47.24
2023-04-29T13:31:56.876Z,46.42
2023-04-29T13:34:25.371Z,46.79
2023-04-29T13:36:53.921Z,46.70
2023-04-29T13:39:23.372Z,46.95
2023-04-29T13:41:51.903Z,47.04
2023-04-29T13:44:29.339Z,45.85
2023-04-29T13:47:06.283Z,44.58
2023-04-29T13:50:10.042Z,43.72
2023-04-29T13:58:20.633Z,44.78
2023-04-29T14:00:38.181Z,44.78
2023-04-29T14:03:04.540Z,44.10
2023-04-29T14:05:32.637Z,43.04
2023-04-29T14:08:00.779Z,42.80
2023-04-29T14:10:28.875Z,42.41
2023-04-29T14:12:56.822Z,42.81
2023-04-29T14:15:24.828Z,42.70
2023-04-29T14:17:53.637Z,42.42
2023-04-29T14:20:22.938Z,42.11
2023-04-29T14:22:51.116Z,41.88
2023-04-29T14:25:19.122Z,41.44
2023-04-29T14:27:49.311Z,41.26
2023-04-29T14:30:17.411Z,41.27
2023-04-29T14:32:46.707Z,40.38
2023-04-29T14:35:15.312Z,40.97
2023-04-29T14:37:44.035Z,41.71
2023-04-29T14:40:12.412Z,42.38
2023-04-29T14:42:40.676Z,42.22
2023-04-29T14:45:09.426Z,41.39
2023-04-29T14:47:37.495Z,41.38
2023-04-29T14:50:06.184Z,40.65
2023-04-29T14:52:34.313Z,41.39
2023-04-29T14:55:02.955Z,41.77
2023-04-29T14:57:31.041Z,42.31
2023-04-29T14:59:59.089Z,42.70
2023-04-29T15:02:27.354Z,43.37
2023-04-29T15:04:55.834Z,43.44
2023-04-29T15:07:24.162Z,43.64
2023-04-29T15:09:52.139Z,44.14
2023-04-29T15:12:21.236Z,44.16
2023-04-29T15:14:49.411Z,44.53
2023-04-29T15:17:17.349Z,45.34
2023-04-29T15:19:45.694Z,45.54
2023-04-29T15:22:13.762Z,45.68
2023-04-29T15:24:41.878Z,46.32
2023-04-29T15:27:09.938Z,46.70
2023-04-29T15:29:38.635Z,46.75
2023-04-29T15:32:06.876Z,47.11
2023-04-29T15:34:34.909Z,48.68
2023-04-29T15:37:02.931Z,48.15
2023-04-29T15:39:31.616Z,48.22
2023-04-29T15:41:59.605Z,48.35
2023-04-29T15:44:27.963Z,48.20
2023-04-29T15:46:55.930Z,48.19
2023-04-29T15:49:24.781Z,48.99
2023-04-29T15:51:52.940Z,48.97
2023-04-29T15:54:21.549Z,49.32
2023-04-29T15:56:50.175Z,48.97
2023-04-29T15:59:18.204Z,49.48
2023-04-29T16:01:46.422Z,49.79
2023-04-29T16:04:14.546Z,49.79
2023-04-29T16:06:42.652Z,50.19
2023-04-29T16:09:12.192Z,50.44
2023-04-29T16:11:40.249Z,50.89
2023-04-29T16:14:08.535Z,51.02
2023-04-29T16:16:36.720Z,50.94
2023-04-29T16:19:04.658Z,50.85
2023-04-29T16:21:33.043Z,51.45
2023-04-29T16:24:00.954Z,52.52
2023-04-29T16:26:28.883Z,52.72
2023-04-29T16:28:56.925Z,52.31
2023-04-29T16:31:24.951Z,53.57
2023-04-29T16:33:53.189Z,52.96
2023-04-29T16:36:21.573Z,55.06
2023-04-29T16:38:49.610Z,55.29
2023-04-29T16:41:17.731Z,58.58
2023-04-29T16:43:45.886Z,56.80
2023-04-29T16:46:13.908Z,59.96
2023-04-29T16:48:42.076Z,62.38
2023-04-29T16:51:10.362Z,61.01
2023-04-29T16:53:38.349Z,61.03
2023-04-29T16:56:06.434Z,61.95
2023-04-29T16:58:34.631Z,64.50
2023-04-29T17:01:04.858Z,63.99
2023-04-29T17:03:32.803Z,65.61
2023-04-29T17:06:00.950Z,67.64
2023-04-29T17:08:28.950Z,67.24
2023-04-29T17:10:57.031Z,67.78
2023-04-29T17:13:25.069Z,68.20
2023-04-29T17:15:53.048Z,66.92
2023-04-29T17:18:21.092Z,68.93
2023-04-29T17:20:50.942Z,66.89
2023-04-29T17:23:19.386Z,69.31
2023-04-29T17:25:47.403Z,71.91
2023-04-29T17:28:15.539Z,77.62
2023-04-29T17:30:43.493Z,76.45
2023-04-29T17:33:13.525Z,84.79
2023-04-29T17:35:41.645Z,89.51
2023-04-29T17:38:09.660Z,92.22
2023-04-29T17:40:37.724Z,98.44
2023-04-29T17:43:05.834Z,100.00
2023-04-29T17:45:33.937Z,100.00
2023-04-29T17:48:02.064Z,100.00
2023-04-29T17:50:30.020Z,100.00
2023-04-29T17:52:58.016Z,100.00
2023-04-29T17:55:26.078Z,100.00
2023-04-29T17:57:56.359Z,100.00
2023-04-29T18:00:24.460Z,100.00
2023-04-29T18:02:52.810Z,100.00
2023-04-29T18:05:21.150Z,100.00
2023-04-29T18:07:49.228Z,100.00
2023-04-29T18:10:17.338Z,100.00
2023-04-29T18:12:45.509Z,100.00
2023-04-29T18:15:16.592Z,100.00
2023-04-29T18:17:44.797Z,100.00
2023-04-29T18:20:13.284Z,100.00
2023-04-29T18:22:41.278Z,100.00
2023-04-29T18:25:09.865Z,100.00
2023-04-29T18:27:37.948Z,100.00
2023-04-29T18:30:07.494Z,100.00
2023-04-29T18:32:35.555Z,100.00
2023-04-29T18:35:04.147Z,100.00
2023-04-29T18:37:32.213Z,100.00
2023-04-29T18:40:00.269Z,100.00
2023-04-29T18:42:28.703Z,100.00
2023-04-29T18:44:56.757Z,100.00
2023-04-29T18:47:24.792Z,100.00
2023-04-29T18:49:52.851Z,100.00
2023-04-29T18:52:21.035Z,100.00
2023-04-29T18:54:49.318Z,100.00
2023-04-29T18:57:17.316Z,100.00
2023-04-29T18:59:45.309Z,100.00
2023-04-29T19:02:13.355Z,100.00
2023-04-29T19:04:41.362Z,100.00
2023-04-29T19:07:09.403Z,100.00
2023-04-29T19:09:37.389Z,100.00
2023-04-29T19:12:05.904Z,100.00
2023-04-29T19:14:34.357Z,100.00
2023-04-29T19:17:02.634Z,100.00
2023-04-29T19:19:30.963Z,100.00
2023-04-29T19:21:58.927Z,100.00
2023-04-29T19:24:27.027Z,100.00
2023-04-29T19:26:55.123Z,100.00
2023-04-29T19:29:23.240Z,100.00
2023-04-29T19:31:51.443Z,100.00
2023-04-29T19:34:19.498Z,100.00
2023-04-29T19:36:47.624Z,100.00
2023-04-29T19:39:17.004Z,100.00
2023-04-29T19:41:45.174Z,100.00
2023-04-29T19:44:13.546Z,100.00
2023-04-29T19:46:41.644Z,100.00
2023-04-29T19:49:09.971Z,100.00
2023-04-29T19:51:38.080Z,100.00
2023-04-29T19:54:06.130Z,100.00
2023-04-29T19:56:34.893Z,100.00
2023-04-29T19:59:04.243Z,100.00
2023-04-29T20:01:32.386Z,100.00
2023-04-29T20:04:01.214Z,100.00
2023-04-29T20:06:29.233Z,100.00
2023-04-29T20:08:57.291Z,100.00
2023-04-29T20:11:25.323Z,100.00
2023-04-29T20:13:53.399Z,100.00
2023-04-29T20:16:23.499Z,100.00
2023-04-29T20:18:51.690Z,100.00
2023-04-29T20:21:19.723Z,100.00
2023-04-29T20:23:47.720Z,100.00
2023-04-29T20:26:17.844Z,100.00
2023-04-29T20:28:49.606Z,100.00
2023-04-29T20:31:18.805Z,100.00
2023-04-29T20:33:47.047Z,100.00
2023-04-29T20:36:16.028Z,100.00
2023-04-29T20:38:44.081Z,100.00
2023-04-29T20:41:12.247Z,100.00
2023-04-29T20:43:41.343Z,100.00
2023-04-29T20:46:09.398Z,100.00
2023-04-29T20:48:37.700Z,100.00
2023-04-29T20:51:06.193Z,100.00
2023-04-29T20:53:34.156Z,100.00
2023-04-29T20:56:02.304Z,100.00
2023-04-29T20:58:30.766Z,100.00
2023-04-29T21:00:58.781Z,100.00
2023-04-29T21:03:26.703Z,100.00
2023-04-29T21:05:55.279Z,100.00
2023-04-29T21:08:23.712Z,100.00
2023-04-29T21:10:51.725Z,100.00
2023-04-29T21:13:19.771Z,100.00
2023-04-29T21:15:47.791Z,100.00
2023-04-29T21:18:15.793Z,100.00
2023-04-29T21:20:46.382Z,100.00
2023-04-29T21:23:14.351Z,100.00
2023-04-29T21:25:42.289Z,100.00
2023-04-29T21:28:10.394Z,100.00
2023-04-29T21:30:38.367Z,100.00
2023-04-29T21:33:06.377Z,100.00
2023-04-29T21:35:34.396Z,100.00
2023-04-29T21:38:02.377Z,100.00
2023-04-29T21:40:30.354Z,100.00
2023-04-29T21:42:58.548Z,100.00
2023-04-29T21:45:26.413Z,100.00
2023-04-29T21:47:55.623Z,100.00
2023-04-29T21:50:23.640Z,100.00
2023-04-29T21:52:51.600Z,100.00
2023-04-29T21:55:19.606Z,100.00
2023-04-29T21:57:47.585Z,100.00
2023-04-29T22:00:33.269Z,100.00
2023-04-29T22:03:04.655Z,100.00
2023-04-29T22:05:32.590Z,100.00
2023-04-29T22:08:01.143Z,100.00
2023-04-29T22:10:29.723Z,100.00
2023-04-29T22:12:57.680Z,100.00
2023-04-29T22:15:28.814Z,100.00
2023-04-29T22:17:57.878Z,100.00
2023-04-29T22:20:26.145Z,100.00
2023-04-29T22:22:54.451Z,100.00
2023-04-29T22:25:22.532Z,100.00
2023-04-29T22:27:50.500Z,100.00
2023-04-29T22:30:18.642Z,100.00
2023-04-29T22:32:46.647Z,100.00
2023-04-29T22:35:14.686Z,100.00
2023-04-29T22:37:42.707Z,100.00
2023-04-29T22:40:11.968Z,100.00
2023-04-29T22:42:41.976Z,100.00
2023-04-29T22:45:11.182Z,100.00
2023-04-29T22:47:39.873Z,100.00
2023-04-29T22:50:08.186Z,100.00
2023-04-29T22:52:36.269Z,100.00
2023-04-29T22:55:04.494Z,100.00
2023-04-29T22:57:32.611Z,100.00
2023-04-29T23:00:00.620Z,100.00
2023-04-29T23:02:29.706Z,100.00
2023-04-29T23:04:58.741Z,100.00
2023-04-29T23:07:26.839Z,100.00
2023-04-29T23:09:55.139Z,100.00
2023-04-29T23:12:24.455Z,100.00
2023-04-29T23:14:52.562Z,100.00
2023-04-29T23:17:20.526Z,100.00
2023-04-29T23:19:48.433Z,100.00
2023-04-29T23:22:17.109Z,100.00
2023-04-29T23:24:45.237Z,100.00
2023-04-29T23:27:13.161Z,100.00
2023-04-29T23:29:41.672Z,100.00
2023-04-29T23:32:09.927Z,100.00
2023-04-29T23:34:37.934Z,100.00
2023-04-29T23:37:05.900Z,100.00
2023-04-29T23:39:33.924Z,100.00
2023-04-29T23:42:03.052Z,100.00
2023-04-29T23:44:31.044Z,100.00
2023-04-29T23:46:59.064Z,100.00
2023-04-29T23:49:27.597Z,100.00
2023-04-29T23:51:56.076Z,100.00
2023-04-29T23:54:24.232Z,100.00
2023-04-29T23:56:52.443Z,100.00
2023-04-29T23:59:20.534Z,100.00
